createdAt,value
2019-04-23T00:01:46.331Z,17.23
2019-04-23T00:04:00.969Z,10.57
2019-04-23T00:06:32.163Z,10.30
2019-04-23T00:09:07.430Z,10.33
2019-04-23T00:11:35.743Z,8.67
2019-04-23T00:14:05.580Z,16.77
2019-04-23T00:16:42.661Z,13.17
2019-04-23T00:19:03.193Z,10.73
2019-04-23T00:21:55.084Z,10.70
2019-04-23T00:27:22.611Z,15.13
2019-04-23T00:29:45.988Z,15.37
2019-04-23T00:32:18.318Z,16.00
2019-04-23T00:34:51.416Z,10.87
2019-04-23T00:39:50.737Z,20.40
2019-04-23T00:42:28.321Z,15.10
2019-04-23T00:44:51.524Z,10.10
2019-04-23T00:47:23.195Z,15.17
2019-04-23T00:49:51.667Z,7.87
2019-04-23T00:52:20.907Z,12.37
2019-04-23T00:54:49.339Z,13.17
2019-04-23T00:57:24.526Z,12.10
2019-04-23T00:59:53.857Z,8.93
2019-04-23T01:02:26.418Z,16.93
2019-04-23T01:04:59.728Z,11.73
2019-04-23T01:07:18.725Z,12.93
2019-04-23T01:12:31.926Z,17.60
2019-04-23T01:14:55.703Z,12.33
2019-04-23T01:17:33.718Z,9.90
2019-04-23T01:20:08.449Z,11.10
2019-04-23T01:22:21.049Z,10.13
2019-04-23T01:25:07.734Z,15.07
2019-04-23T01:28:13.964Z,15.77
2019-04-23T01:30:28.255Z,18.03
2019-04-23T01:33:03.057Z,11.83
2019-04-23T01:35:24.038Z,18.27
2019-04-23T01:38:02.518Z,11.83
2019-04-23T01:40:39.374Z,16.47
2019-04-23T01:43:02.780Z,17.13
2019-04-23T01:45:44.393Z,11.23
2019-04-23T01:48:00.078Z,15.33
2019-04-23T01:50:43.376Z,11.27
2019-04-23T01:55:53.009Z,15.90
2019-04-23T02:00:40.760Z,19.40
2019-04-23T02:03:13.609Z,19.43
2019-04-23T02:05:43.349Z,18.77
2019-04-23T02:08:13.527Z,18.23
2019-04-23T02:13:16.495Z,18.33
2019-04-23T02:15:42.430Z,16.13
2019-04-23T02:20:47.954Z,17.47
2019-04-23T02:23:35.863Z,22.77
2019-04-23T02:26:09.087Z,18.83
2019-04-23T02:31:44.562Z,16.03
2019-04-23T02:36:32.540Z,20.17
2019-04-23T02:43:57.022Z,29.07
2019-04-23T02:46:09.276Z,26.70
2019-04-23T02:48:54.419Z,18.77
2019-04-23T02:51:17.992Z,22.33
2019-04-23T02:56:30.899Z,23.17
2019-04-23T02:58:52.585Z,23.03
2019-04-23T03:01:25.210Z,17.47
2019-04-23T03:03:59.799Z,21.57
2019-04-23T03:06:20.840Z,21.40
2019-04-23T03:08:50.570Z,19.53
2019-04-23T03:11:26.003Z,24.37
2019-04-23T03:14:09.350Z,23.47
2019-04-23T03:19:49.711Z,17.00
2019-04-23T03:25:15.243Z,23.17
2019-04-23T03:27:46.058Z,19.63
2019-04-23T03:37:48.973Z,21.13
2019-04-23T03:40:13.818Z,25.77
2019-04-23T03:42:51.532Z,19.50
2019-04-23T03:45:35.260Z,16.30
2019-04-23T03:47:48.665Z,19.80
2019-04-23T03:50:35.824Z,24.10
2019-04-23T03:52:46.511Z,13.27
2019-04-23T03:55:29.809Z,27.07
2019-04-23T04:05:32.933Z,14.97
2019-04-23T04:10:31.592Z,22.73
2019-04-23T04:15:46.270Z,21.17
2019-04-23T04:18:11.012Z,25.67
2019-04-23T04:20:35.703Z,19.23
2019-04-23T04:23:13.416Z,12.27
2019-04-23T04:33:05.102Z,16.40
2019-04-23T04:35:29.710Z,14.53
2019-04-23T04:43:17.055Z,17.23
2019-04-23T04:48:01.324Z,17.70
2019-04-23T04:50:46.029Z,20.03
2019-04-23T04:53:14.802Z,12.33
2019-04-23T04:55:57.243Z,17.83
2019-04-23T04:58:02.977Z,16.97
2019-04-23T05:00:59.623Z,24.07
2019-04-23T05:03:19.239Z,15.73
2019-04-23T05:08:12.925Z,20.13
2019-04-23T05:13:34.291Z,17.20
2019-04-23T05:18:38.453Z,23.33
2019-04-23T05:26:10.349Z,16.60
2019-04-23T05:28:49.109Z,14.93
2019-04-23T05:31:15.817Z,15.43
2019-04-23T05:33:43.403Z,11.30
2019-04-23T05:38:51.093Z,15.80
2019-04-23T05:41:20.013Z,18.87
2019-04-23T05:43:49.208Z,10.97
2019-04-23T05:46:25.076Z,12.07
2019-04-23T05:48:46.949Z,16.53
2019-04-23T05:51:22.438Z,12.90
2019-04-23T05:53:47.264Z,10.93
2019-04-23T05:56:15.230Z,17.43
2019-04-23T05:58:53.118Z,12.83
2019-04-23T06:01:47.713Z,9.00
2019-04-23T06:04:03.932Z,7.00
2019-04-23T06:06:33.139Z,12.60
2019-04-23T06:14:05.338Z,8.73
2019-04-23T06:16:33.017Z,11.57
2019-04-23T06:19:01.379Z,7.63
2019-04-23T06:21:33.960Z,8.57
2019-04-23T06:23:58.521Z,13.40
2019-04-23T06:26:40.089Z,8.87
2019-04-23T06:29:10.278Z,8.60
2019-04-23T06:31:31.178Z,8.47
2019-04-23T06:34:11.140Z,7.73
2019-04-23T06:36:34.328Z,9.97
2019-04-23T06:41:36.189Z,7.07
2019-04-23T06:44:19.321Z,14.03
2019-04-23T06:46:48.083Z,4.43
2019-04-23T06:49:22.010Z,7.30
2019-04-23T06:51:53.348Z,13.43
2019-04-23T06:54:15.324Z,5.47
2019-04-23T06:56:56.281Z,5.63
2019-04-23T06:59:12.447Z,4.57
2019-04-23T07:01:53.095Z,4.27
2019-04-23T07:04:18.036Z,9.00
2019-04-23T07:06:46.765Z,6.50
2019-04-23T07:09:13.681Z,6.07
2019-04-23T07:11:44.877Z,5.50
2019-04-23T07:14:21.875Z,5.23
2019-04-23T07:16:49.837Z,7.33
2019-04-23T07:21:51.308Z,11.57
2019-04-23T07:24:19.779Z,7.63
2019-04-23T07:26:41.978Z,5.30
2019-04-23T07:29:18.965Z,3.17
2019-04-23T07:31:55.774Z,9.20
2019-04-23T07:34:19.218Z,4.07
2019-04-23T07:39:57.081Z,3.07
2019-04-23T07:45:17.156Z,5.83
2019-04-23T07:50:49.112Z,2.17
2019-04-23T07:53:13.316Z,7.67
2019-04-23T07:55:41.410Z,2.47
2019-04-23T07:58:17.336Z,2.27
2019-04-23T08:03:16.453Z,4.40
2019-04-23T08:05:39.603Z,5.43
2019-04-23T08:08:07.142Z,4.27
2019-04-23T08:10:42.502Z,6.80
2019-04-23T08:13:14.452Z,7.73
2019-04-23T08:18:07.048Z,6.27
2019-04-23T08:20:42.582Z,4.83
2019-04-23T08:23:16.504Z,5.93
2019-04-23T08:26:17.204Z,9.47
2019-04-23T08:28:41.746Z,4.23
2019-04-23T08:31:08.308Z,6.77
2019-04-23T08:33:33.578Z,8.47
2019-04-23T08:36:06.190Z,6.93
2019-04-23T08:38:37.886Z,10.67
2019-04-23T08:41:19.915Z,4.83
2019-04-23T08:46:37.492Z,7.37
2019-04-23T08:49:01.130Z,7.10
2019-04-23T08:51:38.958Z,4.37
2019-04-23T08:53:57.030Z,7.37
2019-04-23T08:58:53.621Z,5.73
2019-04-23T09:01:24.903Z,5.93
2019-04-23T09:04:00.490Z,8.37
2019-04-23T09:06:21.704Z,4.87
2019-04-23T09:09:00.374Z,8.73
2019-04-23T09:16:28.409Z,13.30
2019-04-23T09:19:04.100Z,16.87
2019-04-23T09:21:27.610Z,14.93
2019-04-23T09:26:25.880Z,7.70
2019-04-23T09:28:56.829Z,7.03
2019-04-23T09:32:20.351Z,8.50
2019-04-23T09:35:00.817Z,6.43
2019-04-23T09:37:53.842Z,4.37
2019-04-23T09:43:08.824Z,5.70
2019-04-23T09:48:26.547Z,6.30
2019-04-23T09:53:27.695Z,2.43
2019-04-23T09:55:51.576Z,4.87
2019-04-23T09:58:41.999Z,3.40
2019-04-23T10:01:20.803Z,4.20
2019-04-23T10:03:38.573Z,4.40
2019-04-23T10:06:03.375Z,6.70
2019-04-23T10:08:31.282Z,3.23
2019-04-23T10:10:53.329Z,8.27
2019-04-23T10:13:24.066Z,5.07
2019-04-23T10:15:53.914Z,5.27
2019-04-23T10:18:24.419Z,2.70
2019-04-23T10:20:54.299Z,9.10
2019-04-23T10:23:23.352Z,9.10
2019-04-23T10:25:53.967Z,6.30
2019-04-23T10:28:27.595Z,8.23
2019-04-23T10:30:56.697Z,5.20
2019-04-23T10:33:25.710Z,9.40
2019-04-23T10:36:00.861Z,7.60
2019-04-23T10:38:26.767Z,5.33
2019-04-23T10:40:56.131Z,6.77
2019-04-23T10:43:27.479Z,6.03
2019-04-23T10:46:42.971Z,7.17
2019-04-23T10:49:53.610Z,6.30
2019-04-23T10:54:45.290Z,5.57
2019-04-23T11:07:28.538Z,4.40
2019-04-23T11:12:42.299Z,4.93
2019-04-23T11:15:23.347Z,5.30
2019-04-23T11:17:46.007Z,5.30
2019-04-23T11:25:28.455Z,6.87
2019-04-23T11:27:54.864Z,5.67
2019-04-23T11:30:25.628Z,3.93
2019-04-23T11:32:53.791Z,2.63
2019-04-23T11:35:26.199Z,4.77
2019-04-23T11:38:29.070Z,3.40
2019-04-23T11:40:23.236Z,4.87
2019-04-23T11:42:52.434Z,3.23
2019-04-23T11:45:32.277Z,6.97
2019-04-23T11:50:32.827Z,2.53
2019-04-23T11:53:07.163Z,5.37
2019-04-23T11:55:32.766Z,2.47
2019-04-23T11:57:59.185Z,3.77
2019-04-23T12:00:31.341Z,3.97
2019-04-23T12:02:59.309Z,5.07
2019-04-23T12:06:21.934Z,6.43
2019-04-23T12:08:56.820Z,3.57
2019-04-23T12:11:53.856Z,3.87
2019-04-23T12:14:32.811Z,5.40
2019-04-23T12:17:08.340Z,2.63
2019-04-23T12:22:15.163Z,8.67
2019-04-23T12:32:37.706Z,1.40
2019-04-23T12:35:03.779Z,1.70
2019-04-23T12:37:30.578Z,1.90
2019-04-23T12:40:01.383Z,4.07
2019-04-23T12:45:04.567Z,6.80
2019-04-23T12:55:10.200Z,3.73
2019-04-23T12:59:58.397Z,3.57
2019-04-23T13:02:40.240Z,3.70
2019-04-23T13:05:00.302Z,5.03
2019-04-23T13:07:47.129Z,3.03
2019-04-23T13:12:52.273Z,5.47
2019-04-23T13:15:05.308Z,1.83
2019-04-23T13:20:09.542Z,6.03
2019-04-23T13:22:39.779Z,4.50
2019-04-23T13:25:26.893Z,4.93
2019-04-23T13:28:01.948Z,5.77
2019-04-23T13:33:08.113Z,2.83
2019-04-23T13:38:08.923Z,9.47
2019-04-23T13:43:13.940Z,5.80
2019-04-23T13:45:53.542Z,6.03
2019-04-23T13:48:07.013Z,7.13
2019-04-23T13:50:43.189Z,1.60
2019-04-23T13:55:35.972Z,7.70
2019-04-23T14:03:16.825Z,6.47
2019-04-23T14:06:02.757Z,3.73
2019-04-23T14:08:45.264Z,2.27
2019-04-23T14:10:51.809Z,1.80
2019-04-23T14:16:03.540Z,4.33
2019-04-23T14:21:12.153Z,4.60
2019-04-23T14:23:55.857Z,2.70
2019-04-23T14:28:43.582Z,2.33
2019-04-23T14:31:04.707Z,7.23
2019-04-23T14:34:01.355Z,4.77
2019-04-23T14:36:07.535Z,4.83
2019-04-23T14:38:41.018Z,6.17
2019-04-23T14:41:19.512Z,3.43
2019-04-23T14:51:26.034Z,4.57
2019-04-23T14:53:45.764Z,3.17
2019-04-23T14:56:17.077Z,3.53
2019-04-23T14:58:57.445Z,1.47
2019-04-23T15:01:33.587Z,3.23
2019-04-23T15:03:49.415Z,3.10
2019-04-23T15:09:00.365Z,1.87
2019-04-23T15:13:49.958Z,2.37
2019-04-23T15:16:26.168Z,5.63
2019-04-23T15:22:04.623Z,5.77
2019-04-23T15:24:32.914Z,4.93
2019-04-23T15:29:08.651Z,1.50
2019-04-23T15:32:00.838Z,3.37
2019-04-23T15:42:06.218Z,2.03
2019-04-23T15:44:40.956Z,2.63
2019-04-23T15:47:05.124Z,3.53
2019-04-23T15:49:26.615Z,2.10
2019-04-23T15:52:27.303Z,2.37
2019-04-23T15:54:37.278Z,4.60
2019-04-23T15:59:34.680Z,3.23
2019-04-23T16:01:41.992Z,2.93
2019-04-23T16:04:06.094Z,1.77
2019-04-23T16:06:36.851Z,4.07
2019-04-23T16:09:21.341Z,1.90
2019-04-23T16:11:59.663Z,4.17
2019-04-23T16:14:42.775Z,5.93
2019-04-23T16:17:18.807Z,2.37
2019-04-23T16:20:05.994Z,4.10
2019-04-23T16:22:25.010Z,1.87
2019-04-23T16:27:21.469Z,2.40
2019-04-23T16:30:10.802Z,2.20
2019-04-23T16:32:57.901Z,2.70
2019-04-23T16:38:01.392Z,3.17
2019-04-23T16:40:31.521Z,2.03
2019-04-23T16:42:59.710Z,2.37
2019-04-23T16:45:29.444Z,2.87
2019-04-23T16:47:56.527Z,6.67
2019-04-23T16:50:32.722Z,1.30
2019-04-23T16:53:00.218Z,3.40
2019-04-23T16:55:34.645Z,4.27
2019-04-23T16:58:03.586Z,7.13
2019-04-23T17:00:33.566Z,2.40
2019-04-23T17:03:04.371Z,1.97
2019-04-23T17:05:34.171Z,5.37
2019-04-23T17:08:30.672Z,2.43
2019-04-23T17:10:37.862Z,7.43
2019-04-23T17:13:21.023Z,2.63
2019-04-23T17:15:48.395Z,4.10
2019-04-23T17:18:12.040Z,3.03
2019-04-23T17:20:44.087Z,2.60
2019-04-23T17:23:17.094Z,4.20
2019-04-23T17:25:41.698Z,5.60
2019-04-23T17:28:20.128Z,2.23
2019-04-23T17:39:14.584Z,3.10
2019-04-23T17:41:50.656Z,7.10
2019-04-23T17:44:18.654Z,5.00
2019-04-23T17:46:44.571Z,3.13
2019-04-23T17:49:16.912Z,5.37
2019-04-23T17:51:46.883Z,2.50
2019-04-23T17:56:55.294Z,2.77
2019-04-23T17:59:33.295Z,3.30
2019-04-23T18:01:47.265Z,3.17
2019-04-23T18:04:22.597Z,4.60
2019-04-23T18:07:04.410Z,3.10
2019-04-23T18:09:25.593Z,4.20
2019-04-23T18:11:58.173Z,6.97
2019-04-23T18:14:11.777Z,4.07
2019-04-23T18:19:18.804Z,6.07
2019-04-23T18:22:16.967Z,2.43
2019-04-23T18:27:26.250Z,1.67
2019-04-23T18:30:15.494Z,3.53
2019-04-23T18:33:34.034Z,1.70
2019-04-23T18:38:07.286Z,2.30
2019-04-23T18:40:43.454Z,1.60
2019-04-23T18:43:13.825Z,5.23
2019-04-23T18:45:38.669Z,6.30
2019-04-23T18:48:33.011Z,3.60
2019-04-23T18:53:36.615Z,3.60
2019-04-23T18:56:03.559Z,4.07
2019-04-23T18:58:23.958Z,2.17
2019-04-23T19:01:14.013Z,3.27
2019-04-23T19:04:00.425Z,3.63
2019-04-23T19:06:47.384Z,3.37
2019-04-23T19:09:39.158Z,2.87
2019-04-23T19:12:19.620Z,1.60
2019-04-23T19:19:55.041Z,3.33
2019-04-23T19:22:20.732Z,1.90
2019-04-23T19:27:16.841Z,2.53
2019-04-23T19:29:50.404Z,3.77
2019-04-23T19:32:06.601Z,4.03
2019-04-23T19:37:43.918Z,2.97
2019-04-23T19:39:50.130Z,2.90
2019-04-23T19:42:30.897Z,1.23
2019-04-23T19:47:27.188Z,1.50
2019-04-23T19:49:48.457Z,4.63
2019-04-23T19:52:21.869Z,1.93
2019-04-23T19:54:56.131Z,1.57
2019-04-23T19:57:22.098Z,2.80
2019-04-23T20:02:45.251Z,1.73
2019-04-23T20:04:55.214Z,1.93
2019-04-23T20:07:35.036Z,2.63
2019-04-23T20:09:51.622Z,2.27
2019-04-23T20:12:30.086Z,2.10
2019-04-23T20:15:29.951Z,1.47
2019-04-23T20:19:57.047Z,3.27
2019-04-23T20:27:33.637Z,2.80
2019-04-23T20:30:46.948Z,0.80
2019-04-23T20:35:52.396Z,3.13
2019-04-23T20:43:25.590Z,1.60
2019-04-23T20:45:54.604Z,0.70
2019-04-23T20:48:25.178Z,1.27
2019-04-23T20:53:23.706Z,1.80
2019-04-23T20:56:13.949Z,3.23
2019-04-23T20:58:48.255Z,3.03
2019-04-23T21:01:33.950Z,3.17
2019-04-23T21:03:55.232Z,1.13
2019-04-23T21:06:44.217Z,1.70
2019-04-23T21:09:17.429Z,1.03
2019-04-23T21:14:22.671Z,1.43
2019-04-23T21:16:35.690Z,1.10
2019-04-23T21:19:02.687Z,2.00
2019-04-23T21:21:33.532Z,1.53
2019-04-23T21:26:35.839Z,2.17
2019-04-23T21:29:02.112Z,2.13
2019-04-23T21:32:02.514Z,2.70
2019-04-23T21:34:13.065Z,2.00
2019-04-23T21:36:51.049Z,1.67
2019-04-23T21:39:38.568Z,1.07
2019-04-23T21:44:28.805Z,1.93
2019-04-23T21:47:01.272Z,1.90
2019-04-23T21:49:50.639Z,0.60
2019-04-23T21:52:05.059Z,3.07
2019-04-23T21:54:41.227Z,1.57
2019-04-23T21:57:02.421Z,1.73
2019-04-23T21:59:39.586Z,3.23
2019-04-23T22:02:28.154Z,2.13
2019-04-23T22:04:39.964Z,1.60
2019-04-23T22:07:11.986Z,2.20
2019-04-23T22:09:48.013Z,1.50
2019-04-23T22:12:08.508Z,1.57
2019-04-23T22:14:55.394Z,1.70
2019-04-23T22:17:20.551Z,0.60
2019-04-23T22:19:45.563Z,3.23
2019-04-23T22:22:12.644Z,1.27
2019-04-23T22:27:09.747Z,3.73
2019-04-23T22:29:44.704Z,1.27
2019-04-23T22:32:12.854Z,3.50
2019-04-23T22:34:47.118Z,1.80
2019-04-23T22:37:19.404Z,1.27
2019-04-23T22:40:02.568Z,0.90
2019-04-23T22:42:26.054Z,1.10
2019-04-23T22:45:00.703Z,1.60
2019-04-23T22:47:05.962Z,1.20
2019-04-23T22:52:23.278Z,0.80
2019-04-23T22:57:20.976Z,0.80
2019-04-23T23:00:02.365Z,0.87
2019-04-23T23:03:06.388Z,1.23
2019-04-23T23:10:42.690Z,2.10
2019-04-23T23:15:44.989Z,2.40
2019-04-23T23:20:47.819Z,0.60
2019-04-23T23:23:11.227Z,1.83
2019-04-23T23:28:11.614Z,1.23
2019-04-23T23:30:45.260Z,2.87
2019-04-23T23:33:13.313Z,1.17
2019-04-23T23:38:13.717Z,1.47
2019-04-23T23:40:47.807Z,2.37
2019-04-23T23:43:21.250Z,2.30
2019-04-23T23:48:12.864Z,2.10
2019-04-23T23:55:51.885Z,1.40
